Time;durP1;ratioP1;P1;durP2;ratioP2;P2;SDS_P1;SDS_P2;PMS_P1;PMS_P2;Temp;Humidity;BMP_temperature;BMP_pressure;BME280_temperature;BME280_humidity;BME280_pressure;Samples;Min_cycle;Max_cycle;Signal;HPM_P1;HPM_P2
2023/02/21 02:16:39;;;;;;;8.80;4.78;;;;;;;3.63;52.64;94084.53;4974783;28;20474;-77
2023/02/21 02:19:29;;;;;;;5.15;3.70;;;;;;;3.98;51.99;94084.53;4975814;28;20022;-77
2023/02/21 02:22:22;;;;;;;5.25;3.22;;;;;;;4.40;50.72;94083.44;4969473;28;20141;-78
2023/02/21 02:25:00;;;;;;;5.82;4.47;;;;;;;4.46;50.52;94082.34;4974513;28;20046;-76
2023/02/21 02:27:46;;;;;;;6.55;3.65;;;;;;;3.83;51.48;94084.53;4976095;28;20908;-76
2023/02/21 02:30:27;;;;;;;5.20;3.78;;;;;;;4.08;51.22;94092.41;4974377;28;20529;-76
2023/02/21 02:33:38;;;;;;;8.57;3.60;;;;;;;3.77;51.68;94036.38;4974033;28;20887;-76
2023/02/21 02:36:15;;;;;;;6.40;3.47;;;;;;;4.17;50.19;94040.81;4975388;28;20030;-76
2023/02/21 02:39:04;;;;;;;14.82;4.75;;;;;;;3.95;50.99;94064.00;4974101;28;20332;-76
2023/02/21 02:41:58;;;;;;;5.45;3.85;;;;;;;4.01;50.91;94086.66;4974439;28;20047;-76
2023/02/21 02:44:51;;;;;;;6.50;3.92;;;;;;;3.77;51.00;94052.19;4965153;28;20152;-77
2023/02/21 02:47:23;;;;;;;6.70;3.47;;;;;;;3.79;52.31;94088.75;4973807;28;20046;-77
2023/02/21 02:49:51;;;;;;;6.38;4.45;;;;;;;4.24;50.99;94074.75;4972989;28;20034;-76
2023/02/21 02:52:16;;;;;;;6.82;4.35;;;;;;;3.44;51.80;94049.28;4966602;28;20034;-76
2023/02/21 02:54:42;;;;;;;6.72;3.90;;;;;;;3.45;52.49;94066.66;4974746;28;20041;-76
2023/02/21 02:57:11;;;;;;;6.32;4.13;;;;;;;3.47;52.68;94093.47;4973941;28;20518;-76
2023/02/21 02:59:41;;;;;;;7.47;4.32;;;;;;;3.61;51.80;94060.34;4974769;28;20835;-76
2023/02/21 03:02:29;;;;;;;4.72;3.47;;;;;;;4.25;50.78;94081.59;4973334;28;20601;-76
2023/02/21 03:05:06;;;;;;;5.63;3.78;;;;;;;4.46;49.93;94088.41;4974710;28;20039;-76
2023/02/21 03:07:48;;;;;;;4.63;3.88;;;;;;;2.86;54.13;94083.63;4973941;28;20482;-76
2023/02/21 03:10:20;;;;;;;7.57;4.07;;;;;;;3.75;52.32;94079.81;4971638;28;20206;-75
2023/02/21 03:13:01;;;;;;;5.78;3.42;;;;;;;3.97;51.10;94075.03;4975183;28;20049;-76
2023/02/21 03:15:30;;;;;;;7.00;3.67;;;;;;;3.91;51.89;94076.13;4972716;28;20114;-77
2023/02/21 03:18:04;;;;;;;7.38;3.95;;;;;;;2.79;52.75;94014.00;4972968;28;20049;-76
2023/02/21 03:20:32;;;;;;;6.40;3.90;;;;;;;3.86;51.83;94060.34;4973817;28;20038;-77
2023/02/21 03:23:01;;;;;;;7.38;4.40;;;;;;;2.98;53.66;94062.38;4972917;28;20031;-76
2023/02/21 03:25:31;;;;;;;6.30;3.30;;;;;;;2.47;55.11;94067.47;4975240;28;20089;-75
2023/02/21 03:27:59;;;;;;;8.85;4.40;;;;;;;1.66;57.27;94040.75;4981041;28;20270;-76
2023/02/21 03:30:24;;;;;;;7.68;4.38;;;;;;;2.37;56.78;94059.53;4973023;28;20156;-76
2023/02/21 03:32:52;;;;;;;9.93;5.20;;;;;;;3.08;54.00;94041.38;4973244;28;20074;-76
2023/02/21 03:35:19;;;;;;;6.60;4.43;;;;;;;3.16;53.38;94068.97;4972688;28;20053;-76
2023/02/21 03:37:52;;;;;;;5.65;4.22;;;;;;;2.24;56.44;94070.50;4975605;28;20806;-75
2023/02/21 03:40:30;;;;;;;5.90;3.63;;;;;;;2.88;54.76;94046.59;4976569;28;20124;-76
2023/02/21 03:42:57;;;;;;;7.60;5.00;;;;;;;3.39;53.50;94040.34;4979304;28;20299;-77
2023/02/21 03:45:23;;;;;;;5.10;3.65;;;;;;;3.84;51.83;94046.66;4967606;28;20053;-77
2023/02/21 03:47:48;;;;;;;9.98;3.63;;;;;;;4.12;50.92;94061.88;4979918;28;20046;-76
2023/02/21 03:50:14;;;;;;;6.47;3.10;;;;;;;3.80;51.00;94067.44;4976377;28;20551;-75
2023/02/21 03:52:40;;;;;;;6.07;3.67;;;;;;;3.47;52.06;94072.44;4978868;28;20422;-76
2023/02/21 03:55:07;;;;;;;8.15;3.47;;;;;;;3.56;52.07;94058.50;4975751;28;20041;-76
2023/02/21 03:57:33;;;;;;;5.03;3.38;;;;;;;4.16;50.52;94073.44;4978812;28;20038;-76
2023/02/21 03:59:58;;;;;;;5.20;3.13;;;;;;;3.71;51.51;94073.50;4975676;28;20034;-76
2023/02/21 04:02:23;;;;;;;4.60;3.38;;;;;;;3.84;51.43;94055.34;4977156;28;20069;-76
2023/02/21 04:04:49;;;;;;;5.85;3.25;;;;;;;4.16;50.76;94060.28;4977911;28;20042;-76
2023/02/21 04:07:19;;;;;;;5.30;3.00;;;;;;;4.22;50.03;94075.00;4976118;28;20073;-76
2023/02/21 04:09:45;;;;;;;4.05;3.25;;;;;;;3.25;52.81;94068.22;4977429;28;20026;-76
2023/02/21 04:12:11;;;;;;;5.57;4.05;;;;;;;2.86;53.35;94048.69;4977462;28;20112;-76
2023/02/21 04:14:36;;;;;;;6.35;4.03;;;;;;;2.13;55.17;94033.97;4972310;28;20050;-76
2023/02/21 04:17:02;;;;;;;7.32;3.70;;;;;;;2.75;54.77;94068.88;4975998;28;20034;-77
2023/02/21 04:19:27;;;;;;;7.35;4.60;;;;;;;2.13;55.28;94055.75;4975398;28;20057;-76
2023/02/21 04:21:52;;;;;;;9.63;5.10;;;;;;;1.84;57.78;94084.13;4976939;28;20504;-77
2023/02/21 04:24:18;;;;;;;10.38;5.18;;;;;;;2.39;55.64;94080.28;4993153;28;20058;-76
2023/02/21 04:26:43;;;;;;;4.70;4.10;;;;;;;1.77;57.85;94077.50;4974134;28;20166;-76
2023/02/21 04:29:09;;;;;;;6.28;4.32;;;;;;;2.62;55.80;94102.69;4980135;28;20058;-77
2023/02/21 04:31:35;;;;;;;9.10;4.13;;;;;;;2.49;55.79;94096.88;4976264;28;20030;-77
2023/02/21 04:34:00;;;;;;;4.93;3.50;;;;;;;2.41;55.35;94092.09;4975336;28;20033;-77
2023/02/21 04:36:26;;;;;;;5.25;3.78;;;;;;;2.74;54.79;94077.03;4974435;28;20566;-77
2023/02/21 04:38:52;;;;;;;5.45;3.95;;;;;;;2.96;54.22;94096.00;4976928;28;20062;-76
2023/02/21 04:41:18;;;;;;;5.68;3.58;;;;;;;2.78;53.94;94084.13;4973876;28;20046;-78
2023/02/21 04:43:43;;;;;;;7.50;4.75;;;;;;;2.14;56.35;94120.31;4974281;28;20047;-77
2023/02/21 04:46:15;;;;;;;10.25;4.85;;;;;;;1.99;56.82;94079.00;4975090;28;20076;-77
2023/02/21 04:48:45;;;;;;;10.73;4.30;;;;;;;2.69;55.34;94092.75;4975307;28;20023;-77
2023/02/21 04:51:11;;;;;;;10.45;4.95;;;;;;;2.35;55.83;94124.59;4972243;28;20034;-77
2023/02/21 04:53:37;;;;;;;11.15;7.20;;;;;;;2.59;55.91;94117.16;4974805;28;20042;-77
2023/02/21 04:56:05;;;;;;;9.93;5.88;;;;;;;2.76;54.66;94095.94;4975494;28;20069;-77
2023/02/21 04:58:31;;;;;;;10.13;5.65;;;;;;;3.14;53.73;94099.97;4974878;28;20112;-77
2023/02/21 05:00:57;;;;;;;6.80;4.03;;;;;;;3.44;52.60;94065.84;4975085;28;20022;-77
2023/02/21 05:03:23;;;;;;;7.90;3.83;;;;;;;3.76;51.65;94053.25;4975950;28;20426;-77
2023/02/21 05:05:49;;;;;;;5.03;3.70;;;;;;;4.12;50.97;94064.50;4975619;28;20870;-77
2023/02/21 05:08:14;;;;;;;5.18;3.88;;;;;;;4.26;50.61;94051.56;4973912;28;20035;-77
2023/02/21 05:10:39;;;;;;;8.15;4.20;;;;;;;3.29;52.44;94061.38;5006818;28;20046;-77
2023/02/21 05:13:05;;;;;;;8.98;4.90;;;;;;;2.77;54.20;94066.00;4974995;28;20022;-77
2023/02/21 05:15:30;;;;;;;13.52;4.68;;;;;;;3.27;53.09;94060.88;4975625;28;20381;-77
2023/02/21 05:17:55;;;;;;;9.73;5.03;;;;;;;3.35;52.38;94034.03;4975770;28;20043;-77
2023/02/21 05:20:21;;;;;;;13.75;5.38;;;;;;;3.71;52.07;94066.41;4974353;28;20034;-77
2023/02/21 05:22:48;;;;;;;7.68;4.97;;;;;;;4.01;51.05;94055.06;4977151;28;20034;-76
2023/02/21 05:25:19;;;;;;;11.23;5.90;;;;;;;4.09;50.57;94051.88;4975170;28;20514;-77
2023/02/21 05:27:45;;;;;;;8.35;5.38;;;;;;;4.23;50.38;94062.63;4973533;28;20030;-77
2023/02/21 05:30:13;;;;;;;8.13;4.95;;;;;;;4.04;50.32;94006.34;4975773;28;20038;-77
2023/02/21 05:32:39;;;;;;;11.73;5.07;;;;;;;4.14;50.25;94043.97;4972330;28;20061;-77
2023/02/21 05:35:05;;;;;;;11.40;5.43;;;;;;;4.30;49.86;94036.06;4971794;28;20437;-77
2023/02/21 05:37:31;;;;;;;9.60;4.65;;;;;;;4.44;49.56;94040.50;4975271;28;21120;-78
2023/02/21 05:39:56;;;;;;;10.57;5.03;;;;;;;4.53;49.29;94061.81;4933704;28;1142722;-77
2023/02/21 05:42:21;;;;;;;11.23;5.07;;;;;;;4.53;49.32;94072.34;4975649;28;20134;-78
2023/02/21 05:44:47;;;;;;;17.60;6.43;;;;;;;3.30;51.80;94054.28;4977420;28;20506;-77
2023/02/21 05:47:13;;;;;;;12.73;6.55;;;;;;;3.78;51.50;94050.34;4976284;28;20035;-76
2023/02/21 05:49:39;;;;;;;11.13;6.10;;;;;;;4.05;50.88;94055.31;4974620;28;20034;-77
2023/02/21 05:52:05;;;;;;;25.38;10.48;;;;;;;3.48;51.74;94060.88;4975645;28;20032;-77
2023/02/21 05:54:30;;;;;;;17.77;9.43;;;;;;;3.55;52.71;94101.63;4973777;28;20050;-77
2023/02/21 05:56:56;;;;;;;13.98;8.07;;;;;;;3.83;51.91;94105.59;4974812;28;20511;-78
2023/02/21 05:59:22;;;;;;;27.75;10.45;;;;;;;3.54;52.28;94092.16;4973564;28;20130;-77
2023/02/21 06:01:48;;;;;;;27.23;9.25;;;;;;;3.38;53.45;94091.34;4972833;28;20419;-77
2023/02/21 06:04:14;;;;;;;18.52;8.10;;;;;;;3.47;53.20;94096.91;4974449;28;20038;-77
2023/02/21 06:06:39;;;;;;;39.58;17.95;;;;;;;2.99;53.68;94073.69;4976610;28;20030;-76
2023/02/21 06:09:05;;;;;;;20.42;9.98;;;;;;;2.72;55.43;94098.28;4973282;28;20034;-77
2023/02/21 06:11:32;;;;;;;22.75;10.43;;;;;;;3.21;54.76;94098.69;4973743;28;20038;-77
2023/02/21 06:14:02;;;;;;;24.08;10.07;;;;;;;2.97;54.94;94108.09;4971907;28;20042;-77
2023/02/21 06:16:35;;;;;;;19.27;9.68;;;;;;;3.06;55.20;94108.38;4969526;28;20060;-77
2023/02/21 06:19:01;;;;;;;17.92;9.30;;;;;;;3.53;53.90;94100.31;4972640;28;20704;-77
2023/02/21 06:21:27;;;;;;;17.98;8.35;;;;;;;3.43;54.25;94089.81;4974225;28;20049;-77
2023/02/21 06:23:52;;;;;;;14.27;7.68;;;;;;;3.55;53.83;94119.25;4974698;28;20446;-77
2023/02/21 06:26:19;;;;;;;23.33;7.53;;;;;;;2.85;55.79;94102.25;4973299;28;20502;-77
2023/02/21 06:28:44;;;;;;;17.42;8.30;;;;;;;2.86;56.37;94123.03;4973821;28;20043;-77
2023/02/21 06:31:10;;;;;;;11.55;6.45;;;;;;;2.91;56.04;94125.69;4973169;28;20509;-76
2023/02/21 06:33:35;;;;;;;16.58;6.30;;;;;;;2.49;56.36;94091.63;4971517;28;20018;-78
2023/02/21 06:36:12;;;;;;;13.70;6.05;;;;;;;3.11;55.47;94122.31;4982103;28;20762;-77
2023/02/21 06:38:38;;;;;;;18.95;6.93;;;;;;;3.64;53.77;94096.63;4971904;28;20069;-77
2023/02/21 06:41:07;;;;;;;13.85;5.72;;;;;;;4.13;52.49;94110.84;4975050;28;20132;-77
2023/02/21 06:43:35;;;;;;;11.98;4.85;;;;;;;4.51;51.47;94117.38;4973047;28;20061;-76
2023/02/21 06:46:01;;;;;;;9.43;5.55;;;;;;;3.85;53.26;94119.28;4973189;28;20022;-77
2023/02/21 06:48:27;;;;;;;15.18;7.40;;;;;;;3.75;52.78;94114.81;4974496;28;20053;-79
2023/02/21 06:50:52;;;;;;;14.88;5.90;;;;;;;4.15;53.09;94114.00;4971401;28;20034;-77
2023/02/21 06:53:17;;;;;;;15.30;5.63;;;;;;;4.40;51.97;94100.03;4973184;28;20322;-77
2023/02/21 06:55:43;;;;;;;14.75;5.88;;;;;;;4.23;51.27;94102.91;4974698;28;20048;-77
2023/02/21 06:58:09;;;;;;;13.77;5.68;;;;;;;3.90;52.30;94106.13;4972901;28;20818;-77
2023/02/21 07:00:35;;;;;;;14.45;5.10;;;;;;;4.19;52.19;94109.78;4964806;28;20112;-77
2023/02/21 07:03:00;;;;;;;12.43;5.70;;;;;;;3.80;52.56;94075.34;4972880;28;20173;-77
2023/02/21 07:05:26;;;;;;;15.77;6.30;;;;;;;3.79;52.39;94088.75;4972771;28;20395;-77
2023/02/21 07:07:51;;;;;;;18.60;5.88;;;;;;;3.88;52.65;94116.09;4972850;28;20065;-77
2023/02/21 07:10:17;;;;;;;10.75;4.70;;;;;;;3.65;52.77;94090.34;4972928;28;20077;-76
2023/02/21 07:12:42;;;;;;;11.25;5.50;;;;;;;3.91;52.31;94117.44;4972420;28;20106;-79
2023/02/21 07:15:08;;;;;;;13.35;5.43;;;;;;;3.98;52.24;94118.75;5006061;28;20042;-77
2023/02/21 07:17:33;;;;;;;16.15;5.43;;;;;;;4.03;52.04;94113.47;4974372;28;20035;-77
2023/02/21 07:19:58;;;;;;;13.02;5.82;;;;;;;4.07;52.12;94108.47;4971566;28;20073;-77
2023/02/21 07:22:25;;;;;;;8.32;5.53;;;;;;;4.17;51.98;94114.50;4973347;28;20038;-77
2023/02/21 07:24:54;;;;;;;8.25;5.53;;;;;;;4.28;52.45;94118.72;4973388;28;20038;-77
2023/02/21 07:27:20;;;;;;;15.40;6.88;;;;;;;4.30;51.65;94117.69;4969048;28;20132;-76
2023/02/21 07:29:47;;;;;;;7.13;5.22;;;;;;;4.92;50.63;94112.75;4967675;28;20116;-77
2023/02/21 07:32:13;;;;;;;8.32;5.43;;;;;;;4.70;50.04;94099.91;4971281;28;20037;-77
2023/02/21 07:34:38;;;;;;;17.17;7.55;;;;;;;4.40;51.07;94101.88;4976819;28;20047;-77
2023/02/21 07:37:04;;;;;;;12.88;6.75;;;;;;;4.41;51.22;94071.84;4972664;28;20032;-77
2023/02/21 07:39:29;;;;;;;19.73;7.05;;;;;;;4.75;50.46;94107.03;4969217;28;20039;-77
2023/02/21 07:41:55;;;;;;;16.58;6.40;;;;;;;5.09;49.77;94073.66;4971623;28;20042;-77
2023/02/21 07:44:20;;;;;;;13.60;5.72;;;;;;;5.38;48.88;94096.72;4971838;28;20037;-78
2023/02/21 07:46:46;;;;;;;18.38;6.30;;;;;;;4.76;50.11;94100.69;4973888;28;20732;-77
2023/02/21 07:49:11;;;;;;;18.65;6.80;;;;;;;4.84;49.57;94058.00;4970246;28;20026;-77
2023/02/21 07:51:37;;;;;;;19.05;6.95;;;;;;;5.21;49.48;94088.38;4974465;28;20109;-77
2023/02/21 07:54:03;;;;;;;17.20;6.30;;;;;;;5.03;49.61;94081.88;4968298;28;20043;-76
2023/02/21 07:56:28;;;;;;;19.52;7.90;;;;;;;5.00;49.53;94072.66;4987923;28;20035;-77
2023/02/21 07:58:54;;;;;;;26.60;7.15;;;;;;;5.66;48.52;94085.44;4969451;28;20046;-78
2023/02/21 08:01:22;;;;;;;16.73;6.93;;;;;;;5.40;48.68;94078.75;4969641;28;20459;-77
2023/02/21 08:03:48;;;;;;;14.82;7.20;;;;;;;5.38;48.32;94052.66;4968135;28;20429;-77
2023/02/21 08:06:13;;;;;;;17.83;7.22;;;;;;;5.65;48.30;94062.75;4968389;28;20039;-77
2023/02/21 08:08:39;;;;;;;17.73;7.97;;;;;;;6.04;47.49;94077.75;4970891;28;20097;-77
2023/02/21 08:11:05;;;;;;;16.77;7.20;;;;;;;5.41;48.47;94080.34;4973399;28;20033;-77
2023/02/21 08:13:30;;;;;;;16.90;6.22;;;;;;;4.95;49.31;94058.72;4972940;28;20092;-77
2023/02/21 08:15:55;;;;;;;13.63;7.28;;;;;;;4.82;49.97;94073.28;4971719;28;20030;-76
2023/02/21 08:18:23;;;;;;;12.27;7.50;;;;;;;4.99;49.93;94076.34;4971536;28;20042;-76
2023/02/21 08:20:53;;;;;;;17.05;7.53;;;;;;;4.88;50.02;94051.13;4969274;28;20370;-77
2023/02/21 08:23:19;;;;;;;20.55;7.78;;;;;;;5.11;49.99;94083.94;4969870;28;20038;-77
2023/02/21 08:25:45;;;;;;;15.40;8.10;;;;;;;5.50;49.40;94086.59;4974689;28;20049;-78
2023/02/21 08:28:11;;;;;;;22.85;7.50;;;;;;;5.68;48.91;94066.69;4969953;28;20046;-79
2023/02/21 08:30:36;;;;;;;20.13;7.85;;;;;;;5.01;49.57;94034.69;4973752;28;20018;-77
2023/02/21 08:33:02;;;;;;;14.73;6.75;;;;;;;5.42;49.16;94047.63;4976235;28;20434;-77
2023/02/21 08:35:27;;;;;;;14.80;7.68;;;;;;;5.71;48.53;94060.88;4970929;28;20619;-76
2023/02/21 08:38:01;;;;;;;22.60;7.90;;;;;;;5.45;48.80;94068.16;4972823;28;20754;-77
2023/02/21 08:40:29;;;;;;;20.23;7.88;;;;;;;5.68;48.85;94077.22;4979654;28;20042;-77
2023/02/21 08:42:55;;;;;;;25.88;7.28;;;;;;;5.78;48.05;94035.72;4975044;28;20079;-79
2023/02/21 08:45:23;;;;;;;28.25;9.90;;;;;;;5.87;47.83;94064.97;4964026;28;20034;-77
2023/02/21 08:47:50;;;;;;;13.95;7.18;;;;;;;6.12;47.19;94056.00;4973965;28;20038;-77
2023/02/21 08:50:16;;;;;;;21.17;7.38;;;;;;;6.19;47.30;94049.38;4973852;28;20045;-79
2023/02/21 08:52:42;;;;;;;18.63;6.68;;;;;;;6.26;47.04;94025.28;4977563;28;20084;-78
2023/02/21 08:55:07;;;;;;;17.98;6.82;;;;;;;6.35;47.08;94065.84;4976003;28;20509;-77
2023/02/21 08:57:33;;;;;;;22.05;9.40;;;;;;;6.46;46.50;94046.16;4979969;28;20055;-78
2023/02/21 09:00:00;;;;;;;20.25;8.98;;;;;;;6.56;46.79;94051.34;4965517;28;20041;-78
2023/02/21 09:02:25;;;;;;;16.70;8.00;;;;;;;6.24;47.27;94054.59;4968106;28;20081;-77
2023/02/21 09:04:53;;;;;;;22.95;7.95;;;;;;;6.16;47.89;94051.78;4967954;28;20038;-77
2023/02/21 09:07:20;;;;;;;12.77;7.22;;;;;;;6.25;47.26;94039.56;4974644;28;20025;-77
2023/02/21 09:09:46;;;;;;;15.55;8.95;;;;;;;6.05;47.38;94040.50;4977944;28;20374;-77
2023/02/21 09:12:12;;;;;;;13.88;8.20;;;;;;;5.89;47.65;94024.00;4976010;28;20581;-76
2023/02/21 09:14:39;;;;;;;18.63;7.30;;;;;;;5.90;48.14;94053.84;4976263;28;20042;-78
2023/02/21 09:17:07;;;;;;;18.63;7.60;;;;;;;5.79;47.72;94041.78;4974422;28;20034;-77
2023/02/21 09:19:33;;;;;;;12.75;8.00;;;;;;;5.98;47.91;94050.59;4973287;28;20034;-79
2023/02/21 09:21:58;;;;;;;15.52;8.45;;;;;;;6.16;47.49;94028.03;4968635;28;20018;-78
2023/02/21 09:24:25;;;;;;;14.20;7.53;;;;;;;6.38;46.76;94028.31;4976293;28;20034;-78
2023/02/21 09:26:53;;;;;;;13.18;7.50;;;;;;;6.31;47.19;94049.75;4973940;28;20040;-78
2023/02/21 09:29:20;;;;;;;19.88;7.05;;;;;;;6.31;47.21;94028.63;4975642;28;20035;-78
2023/02/21 09:31:46;;;;;;;17.77;6.68;;;;;;;6.28;47.30;94017.84;4974479;28;20503;-78
2023/02/21 09:34:11;;;;;;;16.00;6.75;;;;;;;6.85;46.39;94028.25;4965184;28;20034;-77
2023/02/21 09:36:37;;;;;;;12.93;5.68;;;;;;;6.86;45.91;94029.84;4972111;28;20032;-78
2023/02/21 09:39:46;;;;;;;15.35;6.32;;;;;;;7.02;45.57;94027.00;4976796;28;20053;-78
2023/02/21 09:42:16;;;;;;;14.15;6.05;;;;;;;7.51;44.94;94008.81;4928477;28;20042;-76
2023/02/21 09:44:44;;;;;;;16.33;5.45;;;;;;;7.56;44.51;94003.44;4938896;28;20039;-77
2023/02/21 09:47:18;;;;;;;17.13;6.50;;;;;;;7.65;43.30;94004.34;4940353;28;20711;-77
2023/02/21 09:49:45;;;;;;;16.25;6.38;;;;;;;7.87;44.04;93979.16;4937424;28;20027;-77
2023/02/21 09:52:36;;;;;;;14.02;5.63;;;;;;;8.02;43.72;94013.31;4930700;28;20118;-79
2023/02/21 09:55:08;;;;;;;16.90;6.75;;;;;;;8.36;43.06;94013.75;4930225;28;20841;-78
2023/02/21 09:57:34;;;;;;;12.98;5.47;;;;;;;8.36;42.35;93991.75;4933838;28;20884;-77
2023/02/21 10:00:00;;;;;;;13.05;6.03;;;;;;;8.43;41.99;93992.94;4932660;28;20070;-77
2023/02/21 10:02:41;;;;;;;16.45;6.00;;;;;;;8.58;41.54;94003.22;4918365;28;20047;-77
2023/02/21 10:05:29;;;;;;;18.92;6.13;;;;;;;8.63;42.05;94001.56;4922810;28;20566;-77
2023/02/21 10:08:05;;;;;;;20.45;7.50;;;;;;;8.94;41.00;93989.25;4925409;28;20084;-77
2023/02/21 10:10:47;;;;;;;9.82;5.55;;;;;;;9.02;40.83;93981.38;4920922;28;20539;-77
2023/02/21 10:13:50;;;;;;;16.65;6.22;;;;;;;9.06;40.41;93952.38;4932561;28;20515;-77
2023/02/21 10:16:23;;;;;;;11.05;4.95;;;;;;;9.87;40.76;93969.84;4928407;28;20052;-78
2023/02/21 10:19:08;;;;;;;16.42;6.00;;;;;;;9.79;38.80;93965.25;4927927;28;20294;-77
2023/02/21 10:21:36;;;;;;;;;;;;;;;9.82;39.19;93972.63;4925907;28;20047;-78
2023/02/21 10:24:10;;;;;;;8.20;4.32;;;;;;;10.11;37.20;93948.25;4927831;28;19922;-77
2023/02/21 10:26:41;;;;;;;2.53;1.40;;;;;;;10.68;30.41;93932.31;4929114;28;20523;-77
2023/02/21 10:29:19;;;;;;;2.28;1.02;;;;;;;11.12;29.20;93936.59;4933154;28;20130;-78
2023/02/21 10:31:45;;;;;;;3.42;1.85;;;;;;;11.46;29.41;93951.78;4932037;28;20150;-78
2023/02/21 10:34:26;;;;;;;5.40;1.27;;;;;;;11.54;28.96;93927.06;4925581;28;20046;-78
2023/02/21 10:36:54;;;;;;;1.05;0.75;;;;;;;11.69;28.68;93907.91;4926038;28;20038;-78
2023/02/21 10:39:45;;;;;;;2.15;0.93;;;;;;;12.22;27.61;93925.31;4922729;28;20111;-78
2023/02/21 10:42:25;;;;;;;1.40;0.90;;;;;;;12.18;28.20;93911.03;4922249;28;20381;-77
2023/02/21 10:44:52;;;;;;;1.83;1.20;;;;;;;12.14;28.75;93881.56;4920750;28;20126;-78
2023/02/21 10:47:27;;;;;;;4.63;1.00;;;;;;;12.44;28.51;93907.16;4923564;28;20044;-78
2023/02/21 10:50:00;;;;;;;3.35;1.20;;;;;;;12.67;27.98;93910.34;4938304;28;20334;-78
2023/02/21 10:52:25;;;;;;;2.00;1.02;;;;;;;12.82;27.64;93909.00;4921020;28;20114;-78
2023/02/21 10:55:12;;;;;;;3.30;2.15;;;;;;;12.83;27.38;93906.00;4929529;28;20423;-79
2023/02/21 10:57:41;;;;;;;2.78;1.25;;;;;;;13.00;26.90;93909.69;4930451;28;20043;-77
2023/02/21 11:00:09;;;;;;;2.88;1.00;;;;;;;12.98;26.73;93877.97;4918922;28;20491;-78
2023/02/21 11:02:43;;;;;;;3.15;1.00;;;;;;;12.99;27.20;93871.53;4922894;28;20047;-76
2023/02/21 11:05:16;;;;;;;4.47;1.27;;;;;;;13.17;27.07;93874.81;4930033;28;20035;-78
2023/02/21 11:07:58;;;;;;;1.38;0.90;;;;;;;13.31;26.63;93872.66;4929691;28;20082;-78
2023/02/21 11:10:27;;;;;;;2.05;1.35;;;;;;;13.12;27.39;93826.94;4925737;28;20031;-77
2023/02/21 11:13:22;;;;;;;1.38;1.00;;;;;;;13.43;26.99;93870.03;4945559;28;20038;-77
2023/02/21 11:15:48;;;;;;;6.07;3.53;;;;;;;13.48;26.67;93853.81;4928743;28;20122;-78
2023/02/21 11:18:17;;;;;;;6.00;1.30;;;;;;;13.50;26.54;93867.59;4928950;28;20039;-78
2023/02/21 11:20:44;;;;;;;2.05;1.55;;;;;;;13.45;27.01;93859.78;4924499;28;20061;-78
2023/02/21 11:23:25;;;;;;;2.53;1.00;;;;;;;13.43;26.86;93846.00;4926391;28;20047;-79
2023/02/21 11:26:10;;;;;;;1.58;1.10;;;;;;;13.59;26.90;93849.63;4928008;28;20097;-79
2023/02/21 11:28:44;;;;;;;3.77;0.97;;;;;;;13.64;27.10;93841.38;4927699;28;20054;-78
2023/02/21 11:31:19;;;;;;;4.07;1.17;;;;;;;13.81;27.03;93855.69;4943881;28;20266;-78
2023/02/21 11:34:04;;;;;;;4.13;1.38;;;;;;;13.80;27.14;93820.16;4942946;28;20505;-78
2023/02/21 11:36:32;;;;;;;6.10;1.73;;;;;;;13.98;27.24;93824.19;4927212;28;20556;-78
2023/02/21 11:39:15;;;;;;;3.63;0.90;;;;;;;14.20;26.98;93820.28;4928111;28;20058;-78
2023/02/21 11:41:52;;;;;;;1.25;1.00;;;;;;;14.15;27.21;93818.59;4961507;28;20039;-78
2023/02/21 11:44:46;;;;;;;2.30;1.05;;;;;;;14.34;26.69;93820.72;4964908;28;20057;-78
2023/02/21 11:47:15;;;;;;;3.92;1.00;;;;;;;13.98;26.65;93775.28;4963842;28;20062;-78
2023/02/21 11:50:19;;;;;;;1.88;1.13;;;;;;;14.34;26.94;93814.59;4967097;28;20042;-77
2023/02/21 11:52:47;;;;;;;4.18;1.20;;;;;;;14.39;26.33;93804.44;4968908;28;20096;-77
2023/02/21 11:55:15;;;;;;;2.08;1.10;;;;;;;14.16;26.50;93771.25;4965298;28;20057;-78
2023/02/21 11:57:46;;;;;;;1.80;0.90;;;;;;;14.42;26.25;93805.66;4967778;28;20096;-77
2023/02/21 12:00:18;;;;;;;1.80;0.90;;;;;;;14.29;26.61;93801.44;4967641;28;20038;-77
2023/02/21 12:03:02;;;;;;;1.95;1.05;;;;;;;14.38;26.64;93792.16;4968963;28;20054;-76
2023/02/21 12:05:41;;;;;;;1.90;1.35;;;;;;;14.41;26.64;93793.41;4971355;28;20034;-77
2023/02/21 12:08:35;;;;;;;1.98;1.27;;;;;;;14.47;27.08;93794.75;4971033;28;20081;-77
2023/02/21 12:11:18;;;;;;;5.13;1.33;;;;;;;14.43;26.46;93788.47;4971647;28;20074;-77
2023/02/21 12:14:05;;;;;;;1.98;1.20;;;;;;;14.36;26.84;93786.38;4969910;28;20050;-77
2023/02/21 12:16:52;;;;;;;1.27;1.05;;;;;;;14.56;26.78;93774.00;4967591;28;21664;-77
2023/02/21 12:19:33;;;;;;;4.47;1.02;;;;;;;14.58;26.54;93774.44;4969579;28;20085;-77
2023/02/21 12:22:03;;;;;;;3.47;1.40;;;;;;;14.29;26.45;93737.22;4983969;28;20061;-77
2023/02/21 12:24:54;;;;;;;2.75;1.35;;;;;;;14.40;26.99;93755.16;4976623;28;20038;-79
2023/02/21 12:27:42;;;;;;;8.57;1.45;;;;;;;14.36;27.00;93758.84;4984680;28;20526;-77
2023/02/21 12:30:36;;;;;;;4.68;1.63;;;;;;;14.31;27.11;93757.19;4970578;28;20129;-78
2023/02/21 12:33:23;;;;;;;1.75;1.08;;;;;;;14.31;27.22;93751.84;4957551;28;20046;-77
2023/02/21 12:35:48;;;;;;;4.18;1.52;;;;;;;14.38;27.13;93751.25;4970297;28;20038;-78
2023/02/21 12:38:29;;;;;;;4.80;1.70;;;;;;;14.26;27.33;93732.56;4968710;28;21449;-77
2023/02/21 12:40:58;;;;;;;3.88;1.63;;;;;;;14.48;27.93;93748.88;4968729;28;20050;-78
2023/02/21 12:43:50;;;;;;;3.13;1.23;;;;;;;14.62;27.00;93755.81;4969775;28;20027;-78
2023/02/21 12:46:24;;;;;;;3.08;1.48;;;;;;;14.72;26.76;93740.03;4988596;28;20268;-78
2023/02/21 12:49:28;;;;;;;2.08;1.17;;;;;;;14.76;26.95;93737.47;4972225;28;20034;-77
2023/02/21 12:52:05;;;;;;;2.42;1.20;;;;;;;14.77;27.05;93737.13;4893675;29;20445;-77
2023/02/21 12:54:38;;;;;;;5.30;1.85;;;;;;;14.88;27.09;93742.78;4960823;28;20038;-77
2023/02/21 12:57:18;;;;;;;3.22;1.23;;;;;;;14.88;26.81;93742.78;4968736;28;20240;-77
2023/02/21 12:59:56;;;;;;;6.63;1.48;;;;;;;14.91;26.79;93736.75;4970488;28;20105;-78
2023/02/21 13:03:09;;;;;;;2.72;0.98;;;;;;;15.09;26.36;93732.63;4970043;28;20042;-78
2023/02/21 13:05:43;;;;;;;1.77;1.33;;;;;;;14.94;26.53;93731.47;4951876;28;20479;-77
2023/02/21 13:08:27;;;;;;;2.50;1.13;;;;;;;15.09;26.36;93734.53;4963949;28;20072;-77
2023/02/21 13:11:13;;;;;;;2.55;1.40;;;;;;;14.96;25.85;93713.16;4970447;28;20046;-77
2023/02/21 13:13:39;;;;;;;2.78;1.30;;;;;;;15.02;26.20;93721.72;5001748;28;20253;-77
2023/02/21 13:16:10;;;;;;;2.53;0.88;;;;;;;15.10;25.52;93718.13;4962785;28;20542;-78
2023/02/21 13:18:41;;;;;;;3.67;1.30;;;;;;;15.28;26.19;93724.72;4970674;28;20045;-79
2023/02/21 13:21:25;;;;;;;2.80;1.10;;;;;;;15.41;26.19;93717.38;4966600;28;20034;-77
2023/02/21 13:24:29;;;;;;;2.67;1.13;;;;;;;15.52;25.57;93707.72;4970084;28;20053;-77
2023/02/21 13:27:36;;;;;;;1.52;1.10;;;;;;;15.63;25.42;93713.34;4964948;28;20042;-79
2023/02/21 13:30:21;;;;;;;2.53;1.40;;;;;;;15.55;25.37;93715.06;4966830;28;20572;-77
2023/02/21 13:33:00;;;;;;;1.70;1.20;;;;;;;15.59;25.21;93699.09;4968584;28;20045;-77
2023/02/21 13:35:38;;;;;;;1.75;1.30;;;;;;;15.71;25.27;93697.06;4971914;28;20035;-78
2023/02/21 13:38:10;;;;;;;1.67;1.10;;;;;;;15.94;25.25;93683.78;4983722;28;20259;-78
2023/02/21 13:40:53;;;;;;;1.55;1.00;;;;;;;15.95;24.09;93698.75;4969507;28;20049;-78
2023/02/21 13:43:33;;;;;;;3.50;1.10;;;;;;;15.89;24.13;93673.34;4968437;28;20113;-77
2023/02/21 13:46:23;;;;;;;3.42;1.20;;;;;;;16.08;24.30;93689.50;4970122;28;20033;-78
2023/02/21 13:49:26;;;;;;;2.47;1.23;;;;;;;16.18;24.24;93685.50;4969329;28;20042;-79
2023/02/21 13:51:54;;;;;;;2.90;1.40;;;;;;;16.26;24.17;93679.91;4966945;28;20281;-76
2023/02/21 13:54:22;;;;;;;2.75;1.42;;;;;;;16.30;24.35;93667.38;4967746;28;20628;-77
2023/02/21 13:56:50;;;;;;;1.85;1.30;;;;;;;16.30;24.09;93672.75;4972280;28;20069;-77
2023/02/21 13:59:21;;;;;;;2.63;1.20;;;;;;;16.42;24.26;93674.53;4959051;28;20152;-76
2023/02/21 14:01:49;;;;;;;1.80;1.30;;;;;;;16.41;24.62;93677.56;4964752;28;20046;-78
2023/02/21 14:04:51;;;;;;;2.63;1.77;;;;;;;16.68;24.48;93681.94;4966954;28;20049;-78
2023/02/21 14:07:55;;;;;;;6.95;3.55;;;;;;;16.54;24.19;93654.81;4966343;28;20031;-78
2023/02/21 14:10:33;;;;;;;4.45;1.50;;;;;;;16.47;24.08;93686.91;4965687;28;20081;-78
2023/02/21 14:13:05;;;;;;;2.60;1.70;;;;;;;16.56;24.32;93668.66;4966582;28;20026;-76
2023/02/21 14:15:43;;;;;;;5.72;2.22;;;;;;;16.74;24.43;93673.25;4966501;28;20049;-79